sensor_id;sensor_type;location;lat;lon;timestamp;P1;durP1;ratioP1;P2;durP2;ratioP2
20067;SDS011;10194;50.824;7.134;2023-04-10T00:02:25;223.43;;;200.13;;
20067;SDS011;10194;50.824;7.134;2023-04-10T00:04:51;218.97;;;195.13;;
20067;SDS011;10194;50.824;7.134;2023-04-10T00:07:17;222.57;;;199.30;;
20067;SDS011;10194;50.824;7.134;2023-04-10T00:09:42;227.57;;;203.70;;
20067;SDS011;10194;50.824;7.134;2023-04-10T00:12:08;233.03;;;209.57;;
20067;SDS011;10194;50.824;7.134;2023-04-10T00:14:35;229.80;;;206.20;;
20067;SDS011;10194;50.824;7.134;2023-04-10T00:17:01;227.57;;;204.20;;
20067;SDS011;10194;50.824;7.134;2023-04-10T00:19:27;226.23;;;202.90;;
20067;SDS011;10194;50.824;7.134;2023-04-10T00:21:52;225.63;;;202.83;;
20067;SDS011;10194;50.824;7.134;2023-04-10T00:24:19;231.60;;;208.43;;
20067;SDS011;10194;50.824;7.134;2023-04-10T00:26:45;235.70;;;211.57;;
20067;SDS011;10194;50.824;7.134;2023-04-10T00:29:11;230.23;;;206.47;;
20067;SDS011;10194;50.824;7.134;2023-04-10T00:31:38;230.97;;;207.80;;
20067;SDS011;10194;50.824;7.134;2023-04-10T00:34:04;230.97;;;207.37;;
20067;SDS011;10194;50.824;7.134;2023-04-10T00:36:30;231.23;;;207.53;;
20067;SDS011;10194;50.824;7.134;2023-04-10T00:38:56;228.63;;;205.37;;
20067;SDS011;10194;50.824;7.134;2023-04-10T00:41:23;235.00;;;211.27;;
20067;SDS011;10194;50.824;7.134;2023-04-10T00:43:53;238.13;;;214.50;;
20067;SDS011;10194;50.824;7.134;2023-04-10T00:46:21;236.63;;;213.10;;
20067;SDS011;10194;50.824;7.134;2023-04-10T00:48:48;237.90;;;214.30;;
20067;SDS011;10194;50.824;7.134;2023-04-10T00:51:15;235.47;;;212.10;;
20067;SDS011;10194;50.824;7.134;2023-04-10T00:53:41;239.13;;;215.80;;
20067;SDS011;10194;50.824;7.134;2023-04-10T00:56:07;237.63;;;213.43;;
20067;SDS011;10194;50.824;7.134;2023-04-10T00:58:33;236.80;;;213.10;;
20067;SDS011;10194;50.824;7.134;2023-04-10T01:00:59;237.43;;;214.30;;
20067;SDS011;10194;50.824;7.134;2023-04-10T01:03:25;239.87;;;216.23;;
20067;SDS011;10194;50.824;7.134;2023-04-10T01:08:59;247.03;;;223.37;;
20067;SDS011;10194;50.824;7.134;2023-04-10T01:11:47;244.63;;;220.83;;
20067;SDS011;10194;50.824;7.134;2023-04-10T01:14:29;244.93;;;221.17;;
20067;SDS011;10194;50.824;7.134;2023-04-10T01:17:34;241.00;;;217.60;;
20067;SDS011;10194;50.824;7.134;2023-04-10T01:20:21;245.97;;;222.13;;
20067;SDS011;10194;50.824;7.134;2023-04-10T01:25:42;242.67;;;219.03;;
20067;SDS011;10194;50.824;7.134;2023-04-10T01:30:58;243.30;;;219.87;;
20067;SDS011;10194;50.824;7.134;2023-04-10T01:33:29;246.10;;;222.43;;
20067;SDS011;10194;50.824;7.134;2023-04-10T01:36:03;247.17;;;222.87;;
20067;SDS011;10194;50.824;7.134;2023-04-10T01:38:31;245.33;;;221.80;;
20067;SDS011;10194;50.824;7.134;2023-04-10T01:40:58;243.40;;;219.77;;
20067;SDS011;10194;50.824;7.134;2023-04-10T01:43:26;245.23;;;221.47;;
20067;SDS011;10194;50.824;7.134;2023-04-10T01:45:55;249.27;;;224.93;;
20067;SDS011;10194;50.824;7.134;2023-04-10T01:48:22;245.33;;;221.63;;
20067;SDS011;10194;50.824;7.134;2023-04-10T01:50:49;244.53;;;221.10;;
20067;SDS011;10194;50.824;7.134;2023-04-10T01:53:15;247.47;;;223.60;;
20067;SDS011;10194;50.824;7.134;2023-04-10T01:55:42;238.90;;;215.67;;
20067;SDS011;10194;50.824;7.134;2023-04-10T01:58:08;237.87;;;214.30;;
20067;SDS011;10194;50.824;7.134;2023-04-10T02:00:38;236.80;;;213.57;;
20067;SDS011;10194;50.824;7.134;2023-04-10T02:03:06;230.07;;;206.73;;
20067;SDS011;10194;50.824;7.134;2023-04-10T02:05:41;226.60;;;203.77;;
20067;SDS011;10194;50.824;7.134;2023-04-10T02:08:37;232.23;;;209.23;;
20067;SDS011;10194;50.824;7.134;2023-04-10T02:14:10;233.67;;;209.90;;
20067;SDS011;10194;50.824;7.134;2023-04-10T02:16:42;235.83;;;212.53;;
20067;SDS011;10194;50.824;7.134;2023-04-10T02:19:08;242.10;;;218.67;;
20067;SDS011;10194;50.824;7.134;2023-04-10T02:21:35;238.07;;;215.07;;
20067;SDS011;10194;50.824;7.134;2023-04-10T02:24:01;240.47;;;217.10;;
20067;SDS011;10194;50.824;7.134;2023-04-10T02:26:27;238.63;;;215.60;;
20067;SDS011;10194;50.824;7.134;2023-04-10T02:28:53;248.57;;;224.97;;
20067;SDS011;10194;50.824;7.134;2023-04-10T02:31:19;244.87;;;221.40;;
20067;SDS011;10194;50.824;7.134;2023-04-10T02:33:45;244.70;;;221.27;;
20067;SDS011;10194;50.824;7.134;2023-04-10T02:36:11;245.73;;;222.40;;
20067;SDS011;10194;50.824;7.134;2023-04-10T02:38:38;247.80;;;224.00;;
20067;SDS011;10194;50.824;7.134;2023-04-10T02:41:03;244.57;;;220.63;;
20067;SDS011;10194;50.824;7.134;2023-04-10T02:43:30;248.10;;;224.43;;
20067;SDS011;10194;50.824;7.134;2023-04-10T02:45:55;247.40;;;223.53;;
20067;SDS011;10194;50.824;7.134;2023-04-10T02:48:21;243.93;;;220.63;;
20067;SDS011;10194;50.824;7.134;2023-04-10T02:50:47;240.63;;;217.33;;
20067;SDS011;10194;50.824;7.134;2023-04-10T02:53:14;245.57;;;222.13;;
20067;SDS011;10194;50.824;7.134;2023-04-10T02:55:40;242.53;;;219.33;;
20067;SDS011;10194;50.824;7.134;2023-04-10T02:58:06;246.67;;;223.27;;
20067;SDS011;10194;50.824;7.134;2023-04-10T03:00:32;241.70;;;218.30;;
20067;SDS011;10194;50.824;7.134;2023-04-10T03:02:58;237.17;;;213.77;;
20067;SDS011;10194;50.824;7.134;2023-04-10T03:05:24;231.40;;;208.80;;
20067;SDS011;10194;50.824;7.134;2023-04-10T03:07:51;234.83;;;211.90;;
20067;SDS011;10194;50.824;7.134;2023-04-10T03:10:18;239.90;;;216.80;;
20067;SDS011;10194;50.824;7.134;2023-04-10T03:12:43;236.53;;;212.77;;
20067;SDS011;10194;50.824;7.134;2023-04-10T03:15:09;235.87;;;213.00;;
20067;SDS011;10194;50.824;7.134;2023-04-10T03:17:36;239.13;;;215.97;;
20067;SDS011;10194;50.824;7.134;2023-04-10T03:20:02;237.07;;;213.30;;
20067;SDS011;10194;50.824;7.134;2023-04-10T03:22:28;240.17;;;216.93;;
20067;SDS011;10194;50.824;7.134;2023-04-10T03:24:56;237.97;;;214.93;;
20067;SDS011;10194;50.824;7.134;2023-04-10T03:27:22;236.23;;;213.37;;
20067;SDS011;10194;50.824;7.134;2023-04-10T03:29:47;237.10;;;214.07;;
20067;SDS011;10194;50.824;7.134;2023-04-10T03:32:13;238.27;;;215.07;;
20067;SDS011;10194;50.824;7.134;2023-04-10T03:34:39;234.07;;;211.13;;
20067;SDS011;10194;50.824;7.134;2023-04-10T03:37:05;236.37;;;213.40;;
20067;SDS011;10194;50.824;7.134;2023-04-10T03:39:30;238.63;;;215.57;;
20067;SDS011;10194;50.824;7.134;2023-04-10T03:41:57;237.37;;;214.43;;
20067;SDS011;10194;50.824;7.134;2023-04-10T03:44:23;238.07;;;215.10;;
20067;SDS011;10194;50.824;7.134;2023-04-10T03:46:48;240.93;;;217.80;;
20067;SDS011;10194;50.824;7.134;2023-04-10T03:49:14;236.80;;;213.83;;
20067;SDS011;10194;50.824;7.134;2023-04-10T03:51:40;236.33;;;213.37;;
20067;SDS011;10194;50.824;7.134;2023-04-10T03:54:06;240.27;;;217.00;;
20067;SDS011;10194;50.824;7.134;2023-04-10T03:56:31;240.07;;;216.67;;
20067;SDS011;10194;50.824;7.134;2023-04-10T03:58:57;238.13;;;214.90;;
20067;SDS011;10194;50.824;7.134;2023-04-10T04:01:23;245.37;;;221.27;;
20067;SDS011;10194;50.824;7.134;2023-04-10T04:03:49;236.23;;;213.20;;
20067;SDS011;10194;50.824;7.134;2023-04-10T04:06:14;232.83;;;209.83;;
20067;SDS011;10194;50.824;7.134;2023-04-10T04:08:40;233.13;;;209.80;;
20067;SDS011;10194;50.824;7.134;2023-04-10T04:11:06;231.43;;;208.40;;
20067;SDS011;10194;50.824;7.134;2023-04-10T04:13:32;231.07;;;208.07;;
20067;SDS011;10194;50.824;7.134;2023-04-10T04:15:57;230.37;;;207.20;;
20067;SDS011;10194;50.824;7.134;2023-04-10T04:18:23;226.27;;;203.43;;
20067;SDS011;10194;50.824;7.134;2023-04-10T04:20:49;235.20;;;212.37;;
20067;SDS011;10194;50.824;7.134;2023-04-10T04:23:15;235.57;;;212.53;;
20067;SDS011;10194;50.824;7.134;2023-04-10T04:25:41;239.23;;;216.27;;
20067;SDS011;10194;50.824;7.134;2023-04-10T04:28:07;238.07;;;215.17;;
20067;SDS011;10194;50.824;7.134;2023-04-10T04:30:33;235.10;;;212.23;;
20067;SDS011;10194;50.824;7.134;2023-04-10T04:32:59;240.70;;;217.43;;
20067;SDS011;10194;50.824;7.134;2023-04-10T04:35:25;241.00;;;217.83;;
20067;SDS011;10194;50.824;7.134;2023-04-10T04:37:51;241.20;;;217.97;;
20067;SDS011;10194;50.824;7.134;2023-04-10T04:40:16;240.43;;;217.27;;
20067;SDS011;10194;50.824;7.134;2023-04-10T04:42:42;244.83;;;221.57;;
20067;SDS011;10194;50.824;7.134;2023-04-10T04:45:08;241.67;;;218.27;;
20067;SDS011;10194;50.824;7.134;2023-04-10T04:47:34;250.83;;;227.13;;
20067;SDS011;10194;50.824;7.134;2023-04-10T04:50:01;248.20;;;224.50;;
20067;SDS011;10194;50.824;7.134;2023-04-10T04:52:27;249.90;;;226.20;;
20067;SDS011;10194;50.824;7.134;2023-04-10T04:54:53;249.40;;;225.87;;
20067;SDS011;10194;50.824;7.134;2023-04-10T04:57:20;247.17;;;223.50;;
20067;SDS011;10194;50.824;7.134;2023-04-10T04:59:45;248.93;;;225.23;;
20067;SDS011;10194;50.824;7.134;2023-04-10T05:02:11;246.20;;;222.67;;
20067;SDS011;10194;50.824;7.134;2023-04-10T05:04:37;246.60;;;223.03;;
20067;SDS011;10194;50.824;7.134;2023-04-10T05:07:04;243.90;;;220.40;;
20067;SDS011;10194;50.824;7.134;2023-04-10T05:09:32;247.03;;;223.50;;
20067;SDS011;10194;50.824;7.134;2023-04-10T05:11:57;245.10;;;221.37;;
20067;SDS011;10194;50.824;7.134;2023-04-10T05:14:24;246.93;;;223.23;;
20067;SDS011;10194;50.824;7.134;2023-04-10T05:16:50;243.57;;;220.03;;
20067;SDS011;10194;50.824;7.134;2023-04-10T05:19:15;245.87;;;222.20;;
20067;SDS011;10194;50.824;7.134;2023-04-10T05:21:41;241.93;;;218.77;;
20067;SDS011;10194;50.824;7.134;2023-04-10T05:24:07;241.03;;;217.50;;
20067;SDS011;10194;50.824;7.134;2023-04-10T05:26:33;233.30;;;210.30;;
20067;SDS011;10194;50.824;7.134;2023-04-10T05:28:59;239.13;;;215.53;;
20067;SDS011;10194;50.824;7.134;2023-04-10T05:31:25;238.90;;;215.70;;
20067;SDS011;10194;50.824;7.134;2023-04-10T05:33:50;232.53;;;209.73;;
20067;SDS011;10194;50.824;7.134;2023-04-10T05:36:16;240.87;;;217.60;;
20067;SDS011;10194;50.824;7.134;2023-04-10T05:38:42;240.20;;;216.93;;
20067;SDS011;10194;50.824;7.134;2023-04-10T05:41:08;238.07;;;214.57;;
20067;SDS011;10194;50.824;7.134;2023-04-10T05:43:33;236.57;;;213.33;;
20067;SDS011;10194;50.824;7.134;2023-04-10T05:45:59;236.53;;;213.13;;
20067;SDS011;10194;50.824;7.134;2023-04-10T05:48:25;226.97;;;203.97;;
20067;SDS011;10194;50.824;7.134;2023-04-10T05:50:52;232.47;;;209.30;;
20067;SDS011;10194;50.824;7.134;2023-04-10T05:53:18;231.50;;;208.07;;
20067;SDS011;10194;50.824;7.134;2023-04-10T05:55:48;230.40;;;206.93;;
20067;SDS011;10194;50.824;7.134;2023-04-10T05:58:18;232.57;;;209.07;;
20067;SDS011;10194;50.824;7.134;2023-04-10T06:00:44;220.27;;;196.70;;
20067;SDS011;10194;50.824;7.134;2023-04-10T06:03:10;206.67;;;178.67;;
20067;SDS011;10194;50.824;7.134;2023-04-10T06:05:36;208.03;;;164.73;;
20067;SDS011;10194;50.824;7.134;2023-04-10T06:08:02;208.23;;;165.23;;
20067;SDS011;10194;50.824;7.134;2023-04-10T06:10:28;207.40;;;163.97;;
20067;SDS011;10194;50.824;7.134;2023-04-10T06:12:55;207.87;;;162.80;;
20067;SDS011;10194;50.824;7.134;2023-04-10T06:15:20;206.47;;;153.57;;
20067;SDS011;10194;50.824;7.134;2023-04-10T06:17:46;205.67;;;159.90;;
20067;SDS011;10194;50.824;7.134;2023-04-10T06:20:12;209.40;;;149.07;;
20067;SDS011;10194;50.824;7.134;2023-04-10T06:22:38;205.03;;;153.87;;
20067;SDS011;10194;50.824;7.134;2023-04-10T06:25:03;209.10;;;152.87;;
20067;SDS011;10194;50.824;7.134;2023-04-10T06:27:30;211.37;;;160.60;;
20067;SDS011;10194;50.824;7.134;2023-04-10T06:29:57;215.43;;;184.37;;
20067;SDS011;10194;50.824;7.134;2023-04-10T06:32:23;242.10;;;217.00;;
20067;SDS011;10194;50.824;7.134;2023-04-10T06:34:49;240.33;;;215.37;;
20067;SDS011;10194;50.824;7.134;2023-04-10T06:37:15;245.53;;;220.07;;
20067;SDS011;10194;50.824;7.134;2023-04-10T06:39:40;235.90;;;211.43;;
20067;SDS011;10194;50.824;7.134;2023-04-10T06:42:06;270.20;;;244.87;;
20067;SDS011;10194;50.824;7.134;2023-04-10T06:44:32;277.60;;;251.97;;
20067;SDS011;10194;50.824;7.134;2023-04-10T06:46:58;289.90;;;263.60;;
20067;SDS011;10194;50.824;7.134;2023-04-10T06:49:23;289.87;;;263.90;;
20067;SDS011;10194;50.824;7.134;2023-04-10T06:51:49;288.83;;;262.83;;
20067;SDS011;10194;50.824;7.134;2023-04-10T06:54:15;274.43;;;248.97;;
20067;SDS011;10194;50.824;7.134;2023-04-10T06:56:41;263.83;;;238.93;;
20067;SDS011;10194;50.824;7.134;2023-04-10T06:59:06;246.33;;;222.10;;
20067;SDS011;10194;50.824;7.134;2023-04-10T07:01:32;243.57;;;219.50;;
20067;SDS011;10194;50.824;7.134;2023-04-10T07:03:58;226.07;;;202.37;;
20067;SDS011;10194;50.824;7.134;2023-04-10T07:06:23;213.07;;;190.03;;
20067;SDS011;10194;50.824;7.134;2023-04-10T07:08:51;210.43;;;187.33;;
20067;SDS011;10194;50.824;7.134;2023-04-10T07:11:16;200.40;;;170.83;;
20067;SDS011;10194;50.824;7.134;2023-04-10T07:13:42;198.97;;;164.47;;
20067;SDS011;10194;50.824;7.134;2023-04-10T07:16:08;194.03;;;162.37;;
20067;SDS011;10194;50.824;7.134;2023-04-10T07:18:34;185.93;;;146.00;;
20067;SDS011;10194;50.824;7.134;2023-04-10T07:21:07;173.30;;;124.00;;
20067;SDS011;10194;50.824;7.134;2023-04-10T07:23:38;157.47;;;93.03;;
20067;SDS011;10194;50.824;7.134;2023-04-10T07:26:04;156.97;;;90.20;;
20067;SDS011;10194;50.824;7.134;2023-04-10T07:28:30;159.57;;;98.60;;
20067;SDS011;10194;50.824;7.134;2023-04-10T07:30:57;162.80;;;89.27;;
20067;SDS011;10194;50.824;7.134;2023-04-10T07:33:23;152.97;;;81.90;;
20067;SDS011;10194;50.824;7.134;2023-04-10T07:35:48;148.97;;;80.70;;
20067;SDS011;10194;50.824;7.134;2023-04-10T07:38:14;152.20;;;81.40;;
20067;SDS011;10194;50.824;7.134;2023-04-10T07:40:40;146.83;;;81.20;;
20067;SDS011;10194;50.824;7.134;2023-04-10T07:43:06;150.50;;;79.93;;
20067;SDS011;10194;50.824;7.134;2023-04-10T07:45:32;146.20;;;77.83;;
20067;SDS011;10194;50.824;7.134;2023-04-10T07:47:57;150.60;;;77.53;;
20067;SDS011;10194;50.824;7.134;2023-04-10T07:50:23;151.77;;;77.87;;
20067;SDS011;10194;50.824;7.134;2023-04-10T07:52:49;147.67;;;74.63;;
20067;SDS011;10194;50.824;7.134;2023-04-10T07:55:15;148.37;;;74.93;;
20067;SDS011;10194;50.824;7.134;2023-04-10T07:57:41;145.47;;;73.77;;
20067;SDS011;10194;50.824;7.134;2023-04-10T08:00:07;147.63;;;74.03;;
20067;SDS011;10194;50.824;7.134;2023-04-10T08:02:33;144.10;;;72.83;;
20067;SDS011;10194;50.824;7.134;2023-04-10T08:04:59;146.07;;;72.03;;
20067;SDS011;10194;50.824;7.134;2023-04-10T08:07:24;143.30;;;72.03;;
20067;SDS011;10194;50.824;7.134;2023-04-10T08:09:50;142.10;;;70.27;;
20067;SDS011;10194;50.824;7.134;2023-04-10T08:12:16;145.80;;;72.77;;
20067;SDS011;10194;50.824;7.134;2023-04-10T08:14:42;143.03;;;71.10;;
20067;SDS011;10194;50.824;7.134;2023-04-10T08:17:08;143.90;;;72.90;;
20067;SDS011;10194;50.824;7.134;2023-04-10T08:19:38;142.53;;;71.70;;
20067;SDS011;10194;50.824;7.134;2023-04-10T08:22:07;146.03;;;73.00;;
20067;SDS011;10194;50.824;7.134;2023-04-10T08:24:33;142.43;;;72.33;;
20067;SDS011;10194;50.824;7.134;2023-04-10T08:26:59;145.97;;;73.30;;
20067;SDS011;10194;50.824;7.134;2023-04-10T08:29:25;144.80;;;73.03;;
20067;SDS011;10194;50.824;7.134;2023-04-10T08:31:51;145.57;;;72.77;;
20067;SDS011;10194;50.824;7.134;2023-04-10T08:34:18;145.63;;;73.37;;
20067;SDS011;10194;50.824;7.134;2023-04-10T08:36:44;144.30;;;72.83;;
20067;SDS011;10194;50.824;7.134;2023-04-10T08:39:10;148.47;;;73.73;;
20067;SDS011;10194;50.824;7.134;2023-04-10T08:41:36;148.03;;;73.77;;
20067;SDS011;10194;50.824;7.134;2023-04-10T08:44:05;148.93;;;76.50;;
20067;SDS011;10194;50.824;7.134;2023-04-10T08:46:31;149.80;;;75.33;;
20067;SDS011;10194;50.824;7.134;2023-04-10T08:49:01;792.77;;;273.17;;
20067;SDS011;10194;50.824;7.134;2023-04-10T08:51:50;154.23;;;80.63;;
20067;SDS011;10194;50.824;7.134;2023-04-10T08:54:24;153.57;;;81.03;;
20067;SDS011;10194;50.824;7.134;2023-04-10T08:56:54;145.23;;;76.50;;
20067;SDS011;10194;50.824;7.134;2023-04-10T08:59:20;146.47;;;74.83;;
20067;SDS011;10194;50.824;7.134;2023-04-10T09:01:47;146.27;;;74.83;;
20067;SDS011;10194;50.824;7.134;2023-04-10T09:04:13;145.37;;;75.93;;
20067;SDS011;10194;50.824;7.134;2023-04-10T09:06:41;148.53;;;76.40;;
20067;SDS011;10194;50.824;7.134;2023-04-10T09:09:07;145.50;;;73.83;;
20067;SDS011;10194;50.824;7.134;2023-04-10T09:14:23;146.30;;;74.53;;
20067;SDS011;10194;50.824;7.134;2023-04-10T09:17:09;144.70;;;74.40;;
20067;SDS011;10194;50.824;7.134;2023-04-10T09:19:46;145.97;;;74.10;;
20067;SDS011;10194;50.824;7.134;2023-04-10T09:22:28;144.57;;;74.47;;
20067;SDS011;10194;50.824;7.134;2023-04-10T09:24:59;146.93;;;74.93;;
20067;SDS011;10194;50.824;7.134;2023-04-10T09:27:35;145.27;;;74.33;;
20067;SDS011;10194;50.824;7.134;2023-04-10T09:30:03;146.37;;;75.03;;
20067;SDS011;10194;50.824;7.134;2023-04-10T09:32:43;142.90;;;73.13;;
20067;SDS011;10194;50.824;7.134;2023-04-10T09:35:13;149.67;;;75.20;;
20067;SDS011;10194;50.824;7.134;2023-04-10T09:37:41;146.67;;;75.50;;
20067;SDS011;10194;50.824;7.134;2023-04-10T09:40:20;153.17;;;77.43;;
20067;SDS011;10194;50.824;7.134;2023-04-10T09:42:49;144.40;;;74.80;;
20067;SDS011;10194;50.824;7.134;2023-04-10T09:45:15;145.10;;;74.93;;
20067;SDS011;10194;50.824;7.134;2023-04-10T09:48:02;144.83;;;76.13;;
20067;SDS011;10194;50.824;7.134;2023-04-10T09:50:34;144.33;;;75.73;;
20067;SDS011;10194;50.824;7.134;2023-04-10T09:53:04;145.37;;;75.47;;
20067;SDS011;10194;50.824;7.134;2023-04-10T09:55:33;144.10;;;75.87;;
20067;SDS011;10194;50.824;7.134;2023-04-10T09:58:00;141.60;;;75.27;;
20067;SDS011;10194;50.824;7.134;2023-04-10T10:00:34;146.00;;;76.03;;
20067;SDS011;10194;50.824;7.134;2023-04-10T10:03:11;149.10;;;77.37;;
20067;SDS011;10194;50.824;7.134;2023-04-10T10:05:43;143.27;;;75.53;;
20067;SDS011;10194;50.824;7.134;2023-04-10T10:08:15;145.00;;;76.10;;
20067;SDS011;10194;50.824;7.134;2023-04-10T10:10:52;145.23;;;76.00;;
20067;SDS011;10194;50.824;7.134;2023-04-10T10:13:23;146.53;;;75.97;;
20067;SDS011;10194;50.824;7.134;2023-04-10T10:18:55;142.60;;;74.43;;
20067;SDS011;10194;50.824;7.134;2023-04-10T10:21:32;142.77;;;74.63;;
20067;SDS011;10194;50.824;7.134;2023-04-10T10:24:01;145.53;;;76.10;;
20067;SDS011;10194;50.824;7.134;2023-04-10T10:26:29;142.40;;;75.17;;
20067;SDS011;10194;50.824;7.134;2023-04-10T10:29:00;144.47;;;75.67;;
20067;SDS011;10194;50.824;7.134;2023-04-10T10:31:29;147.97;;;76.50;;
20067;SDS011;10194;50.824;7.134;2023-04-10T10:33:59;144.20;;;75.43;;
20067;SDS011;10194;50.824;7.134;2023-04-10T10:36:29;143.27;;;75.10;;
20067;SDS011;10194;50.824;7.134;2023-04-10T10:41:55;142.90;;;74.40;;
20067;SDS011;10194;50.824;7.134;2023-04-10T10:47:29;144.30;;;75.93;;
20067;SDS011;10194;50.824;7.134;2023-04-10T10:50:01;146.63;;;77.00;;
20067;SDS011;10194;50.824;7.134;2023-04-10T10:57:52;144.77;;;76.23;;
20067;SDS011;10194;50.824;7.134;2023-04-10T11:00:23;143.97;;;75.53;;
20067;SDS011;10194;50.824;7.134;2023-04-10T11:03:26;143.90;;;75.37;;
20067;SDS011;10194;50.824;7.134;2023-04-10T11:05:53;145.00;;;76.10;;
20067;SDS011;10194;50.824;7.134;2023-04-10T11:11:00;142.87;;;75.57;;
20067;SDS011;10194;50.824;7.134;2023-04-10T11:13:29;154.93;;;79.30;;
20067;SDS011;10194;50.824;7.134;2023-04-10T11:15:56;148.20;;;77.53;;
20067;SDS011;10194;50.824;7.134;2023-04-10T11:21:18;144.10;;;75.67;;
20067;SDS011;10194;50.824;7.134;2023-04-10T11:31:57;144.73;;;75.13;;
20067;SDS011;10194;50.824;7.134;2023-04-10T11:34:26;145.20;;;75.33;;
20067;SDS011;10194;50.824;7.134;2023-04-10T11:36:54;145.77;;;75.93;;
20067;SDS011;10194;50.824;7.134;2023-04-10T11:39:20;143.63;;;75.57;;
20067;SDS011;10194;50.824;7.134;2023-04-10T11:41:47;145.57;;;75.83;;
20067;SDS011;10194;50.824;7.134;2023-04-10T11:44:25;141.40;;;75.67;;
20067;SDS011;10194;50.824;7.134;2023-04-10T11:46:56;149.30;;;78.20;;
20067;SDS011;10194;50.824;7.134;2023-04-10T11:49:23;144.40;;;76.30;;
20067;SDS011;10194;50.824;7.134;2023-04-10T11:51:52;141.70;;;75.63;;
20067;SDS011;10194;50.824;7.134;2023-04-10T11:54:19;144.40;;;76.27;;
20067;SDS011;10194;50.824;7.134;2023-04-10T11:59:35;143.43;;;75.67;;
20067;SDS011;10194;50.824;7.134;2023-04-10T12:02:11;150.17;;;76.80;;
20067;SDS011;10194;50.824;7.134;2023-04-10T12:04:39;143.77;;;76.10;;
20067;SDS011;10194;50.824;7.134;2023-04-10T12:07:05;144.63;;;76.83;;
20067;SDS011;10194;50.824;7.134;2023-04-10T12:09:32;142.37;;;75.97;;
20067;SDS011;10194;50.824;7.134;2023-04-10T12:12:02;145.47;;;76.00;;
20067;SDS011;10194;50.824;7.134;2023-04-10T12:17:04;143.10;;;76.33;;
20067;SDS011;10194;50.824;7.134;2023-04-10T12:19:32;140.40;;;74.30;;
20067;SDS011;10194;50.824;7.134;2023-04-10T12:21:59;140.87;;;75.00;;
20067;SDS011;10194;50.824;7.134;2023-04-10T12:24:39;142.83;;;75.93;;
20067;SDS011;10194;50.824;7.134;2023-04-10T12:27:26;143.00;;;76.03;;
20067;SDS011;10194;50.824;7.134;2023-04-10T12:29:56;140.77;;;74.73;;
20067;SDS011;10194;50.824;7.134;2023-04-10T12:32:23;142.13;;;75.20;;
20067;SDS011;10194;50.824;7.134;2023-04-10T12:37:21;143.50;;;76.27;;
20067;SDS011;10194;50.824;7.134;2023-04-10T12:39:47;143.10;;;76.53;;
20067;SDS011;10194;50.824;7.134;2023-04-10T12:42:13;142.10;;;75.83;;
20067;SDS011;10194;50.824;7.134;2023-04-10T12:47:20;142.07;;;76.00;;
20067;SDS011;10194;50.824;7.134;2023-04-10T12:52:36;143.57;;;76.80;;
20067;SDS011;10194;50.824;7.134;2023-04-10T12:55:07;144.43;;;76.43;;
20067;SDS011;10194;50.824;7.134;2023-04-10T12:57:41;141.27;;;76.20;;
20067;SDS011;10194;50.824;7.134;2023-04-10T13:00:18;150.07;;;78.27;;
20067;SDS011;10194;50.824;7.134;2023-04-10T13:02:44;142.93;;;75.70;;
20067;SDS011;10194;50.824;7.134;2023-04-10T13:05:11;143.00;;;77.07;;
20067;SDS011;10194;50.824;7.134;2023-04-10T13:07:37;144.57;;;76.30;;
20067;SDS011;10194;50.824;7.134;2023-04-10T13:10:04;143.53;;;75.47;;
20067;SDS011;10194;50.824;7.134;2023-04-10T13:12:31;142.23;;;75.47;;
20067;SDS011;10194;50.824;7.134;2023-04-10T13:14:58;142.83;;;76.33;;
20067;SDS011;10194;50.824;7.134;2023-04-10T13:17:25;142.40;;;75.10;;
20067;SDS011;10194;50.824;7.134;2023-04-10T13:19:51;142.40;;;75.77;;
20067;SDS011;10194;50.824;7.134;2023-04-10T13:22:17;141.00;;;75.13;;
20067;SDS011;10194;50.824;7.134;2023-04-10T13:24:44;143.43;;;75.47;;
20067;SDS011;10194;50.824;7.134;2023-04-10T13:27:09;141.37;;;74.77;;
20067;SDS011;10194;50.824;7.134;2023-04-10T13:29:36;142.37;;;75.10;;
20067;SDS011;10194;50.824;7.134;2023-04-10T13:32:06;144.90;;;75.50;;
20067;SDS011;10194;50.824;7.134;2023-04-10T13:34:32;141.53;;;75.17;;
20067;SDS011;10194;50.824;7.134;2023-04-10T13:36:59;140.63;;;75.07;;
20067;SDS011;10194;50.824;7.134;2023-04-10T13:39:28;141.33;;;75.40;;
20067;SDS011;10194;50.824;7.134;2023-04-10T13:41:55;141.30;;;75.83;;
20067;SDS011;10194;50.824;7.134;2023-04-10T13:44:22;140.80;;;75.43;;
20067;SDS011;10194;50.824;7.134;2023-04-10T13:46:48;141.47;;;75.80;;
20067;SDS011;10194;50.824;7.134;2023-04-10T13:49:15;141.00;;;75.80;;
20067;SDS011;10194;50.824;7.134;2023-04-10T13:51:42;140.30;;;75.40;;
20067;SDS011;10194;50.824;7.134;2023-04-10T13:54:09;144.93;;;77.37;;
20067;SDS011;10194;50.824;7.134;2023-04-10T13:56:35;142.67;;;76.70;;
20067;SDS011;10194;50.824;7.134;2023-04-10T13:59:01;143.13;;;75.77;;
20067;SDS011;10194;50.824;7.134;2023-04-10T14:01:27;141.40;;;75.93;;
20067;SDS011;10194;50.824;7.134;2023-04-10T14:03:53;142.17;;;76.37;;
20067;SDS011;10194;50.824;7.134;2023-04-10T14:06:19;143.43;;;76.20;;
20067;SDS011;10194;50.824;7.134;2023-04-10T14:08:45;144.30;;;77.23;;
20067;SDS011;10194;50.824;7.134;2023-04-10T14:11:11;143.20;;;77.00;;
20067;SDS011;10194;50.824;7.134;2023-04-10T14:13:36;142.07;;;75.93;;
20067;SDS011;10194;50.824;7.134;2023-04-10T14:16:02;150.53;;;78.73;;
20067;SDS011;10194;50.824;7.134;2023-04-10T14:18:28;144.07;;;77.00;;
20067;SDS011;10194;50.824;7.134;2023-04-10T14:20:54;148.30;;;79.37;;
20067;SDS011;10194;50.824;7.134;2023-04-10T14:23:20;143.93;;;78.77;;
20067;SDS011;10194;50.824;7.134;2023-04-10T14:25:46;142.27;;;77.37;;
20067;SDS011;10194;50.824;7.134;2023-04-10T14:28:14;142.83;;;77.90;;
20067;SDS011;10194;50.824;7.134;2023-04-10T14:30:49;142.70;;;78.20;;
20067;SDS011;10194;50.824;7.134;2023-04-10T14:33:16;144.67;;;78.73;;
20067;SDS011;10194;50.824;7.134;2023-04-10T14:35:43;145.00;;;78.33;;
20067;SDS011;10194;50.824;7.134;2023-04-10T14:38:10;142.87;;;79.57;;
20067;SDS011;10194;50.824;7.134;2023-04-10T14:40:37;143.13;;;78.33;;
20067;SDS011;10194;50.824;7.134;2023-04-10T14:43:05;143.03;;;78.23;;
20067;SDS011;10194;50.824;7.134;2023-04-10T14:45:31;145.30;;;80.20;;
20067;SDS011;10194;50.824;7.134;2023-04-10T14:47:57;145.23;;;80.90;;
20067;SDS011;10194;50.824;7.134;2023-04-10T14:50:23;149.20;;;80.83;;
20067;SDS011;10194;50.824;7.134;2023-04-10T14:52:50;143.13;;;77.80;;
20067;SDS011;10194;50.824;7.134;2023-04-10T14:55:17;168.23;;;126.37;;
20067;SDS011;10194;50.824;7.134;2023-04-10T14:57:42;144.07;;;83.13;;
20067;SDS011;10194;50.824;7.134;2023-04-10T15:00:08;146.10;;;79.83;;
20067;SDS011;10194;50.824;7.134;2023-04-10T15:02:35;141.60;;;78.77;;
20067;SDS011;10194;50.824;7.134;2023-04-10T15:05:02;148.77;;;79.47;;